createdAt,value
2023-08-12T00:01:11.392Z,9.77
2023-08-12T00:03:56.258Z,11.23
2023-08-12T00:06:44.533Z,11.23
2023-08-12T00:09:29.475Z,11.40
2023-08-12T00:12:14.090Z,10.90
2023-08-12T00:14:59.662Z,10.80
2023-08-12T00:17:44.683Z,11.20
2023-08-12T00:20:29.894Z,11.88
2023-08-12T00:23:14.561Z,12.27
2023-08-12T00:25:59.583Z,11.18
2023-08-12T00:28:44.616Z,10.98
2023-08-12T00:31:29.277Z,10.70
2023-08-12T00:34:14.431Z,12.38
2023-08-12T00:36:59.443Z,10.38
2023-08-12T00:39:44.363Z,12.05
2023-08-12T00:42:28.938Z,11.30
2023-08-12T00:45:14.127Z,10.55
2023-08-12T00:47:59.076Z,11.82
2023-08-12T00:50:44.340Z,11.25
2023-08-12T00:53:29.083Z,11.75
2023-08-12T00:56:14.053Z,11.60
2023-08-12T00:59:00.751Z,11.18
2023-08-12T01:01:45.948Z,11.70
2023-08-12T01:04:30.718Z,11.55
2023-08-12T01:07:15.700Z,11.38
2023-08-12T01:10:00.719Z,11.23
2023-08-12T01:13:05.263Z,10.80
2023-08-12T01:15:54.487Z,10.68
2023-08-12T01:18:40.415Z,11.43
2023-08-12T01:21:27.208Z,10.70
2023-08-12T01:24:12.396Z,9.70
2023-08-12T01:26:57.275Z,11.02
2023-08-12T01:29:44.784Z,11.23
2023-08-12T01:32:39.226Z,10.52
2023-08-12T01:35:33.695Z,10.13
2023-08-12T01:38:19.890Z,10.90
2023-08-12T01:41:05.486Z,10.95
2023-08-12T01:43:50.540Z,10.35
2023-08-12T01:46:36.603Z,10.23
2023-08-12T01:49:23.698Z,10.43
2023-08-12T01:52:08.601Z,11.05
2023-08-12T01:54:53.545Z,10.45
2023-08-12T01:57:38.049Z,10.57
2023-08-12T02:00:48.961Z,10.93
2023-08-12T02:03:34.316Z,11.30
2023-08-12T02:06:20.147Z,10.63
2023-08-12T02:09:05.194Z,11.00
2023-08-12T02:11:50.505Z,10.27
2023-08-12T02:14:36.833Z,10.88
2023-08-12T02:17:21.522Z,9.75
2023-08-12T02:20:07.398Z,11.68
2023-08-12T02:22:52.247Z,10.82
2023-08-12T02:25:37.319Z,10.73
2023-08-12T02:28:22.126Z,10.05
2023-08-12T02:31:07.151Z,9.35
2023-08-12T02:33:52.188Z,11.23
2023-08-12T02:36:36.893Z,11.15
2023-08-12T02:39:22.200Z,9.93
2023-08-12T02:42:06.849Z,9.82
2023-08-12T02:44:51.379Z,10.23
2023-08-12T02:47:36.284Z,10.63
2023-08-12T02:50:21.362Z,10.05
2023-08-12T02:53:07.309Z,9.63
2023-08-12T02:55:52.569Z,9.65
2023-08-12T02:58:38.295Z,9.48
2023-08-12T03:01:23.622Z,10.02
2023-08-12T03:04:08.510Z,10.75
2023-08-12T03:06:53.825Z,9.95
2023-08-12T03:09:38.897Z,9.77
2023-08-12T03:12:23.917Z,8.82
2023-08-12T03:15:09.408Z,9.30
2023-08-12T03:17:54.121Z,9.65
2023-08-12T03:20:39.154Z,8.85
2023-08-12T03:23:24.218Z,8.48
2023-08-12T03:26:09.242Z,8.10
2023-08-12T03:28:54.307Z,8.32
2023-08-12T03:31:40.089Z,8.48
2023-08-12T03:34:25.301Z,7.80
2023-08-12T03:37:10.731Z,8.55
2023-08-12T03:39:56.181Z,8.20
2023-08-12T03:42:41.070Z,7.45
2023-08-12T03:45:26.262Z,7.28
2023-08-12T03:48:11.503Z,7.63
2023-08-12T03:50:56.604Z,7.28
2023-08-12T03:53:41.574Z,7.07
2023-08-12T03:56:26.557Z,6.93
2023-08-12T03:59:11.652Z,6.88
2023-08-12T04:01:56.448Z,7.05
2023-08-12T04:04:43.222Z,7.05
2023-08-12T04:07:28.133Z,6.43
2023-08-12T04:10:13.035Z,6.80
2023-08-12T04:12:57.641Z,6.97
2023-08-12T04:15:42.784Z,7.90
2023-08-12T04:18:27.664Z,6.63
2023-08-12T04:21:13.021Z,6.97
2023-08-12T04:23:57.836Z,6.45
2023-08-12T04:26:44.009Z,6.57
2023-08-12T04:29:29.338Z,6.10
2023-08-12T04:32:14.313Z,6.68
2023-08-12T04:34:59.324Z,6.55
2023-08-12T04:37:45.036Z,5.95
2023-08-12T04:40:29.669Z,5.68
2023-08-12T04:43:15.071Z,6.30
2023-08-12T04:46:00.482Z,6.22
2023-08-12T04:48:46.243Z,6.57
2023-08-12T04:51:32.391Z,6.00
2023-08-12T04:54:17.610Z,5.85
2023-08-12T04:57:02.311Z,5.90
2023-08-12T04:59:47.302Z,6.25
2023-08-12T05:02:33.263Z,5.57
2023-08-12T05:05:18.471Z,5.88
2023-08-12T05:08:03.679Z,5.38
2023-08-12T05:10:51.513Z,5.57
2023-08-12T05:13:37.013Z,5.30
2023-08-12T05:16:22.323Z,5.80
2023-08-12T05:19:07.147Z,5.53
2023-08-12T05:21:52.992Z,5.93
2023-08-12T05:24:38.083Z,5.47
2023-08-12T05:27:23.028Z,5.55
2023-08-12T05:30:07.855Z,4.72
2023-08-12T05:32:52.737Z,4.70
2023-08-12T05:35:37.580Z,5.10
2023-08-12T05:38:22.517Z,5.07
2023-08-12T05:41:08.874Z,5.10
2023-08-12T05:43:53.576Z,4.43
2023-08-12T05:46:38.549Z,4.78
2023-08-12T05:49:23.757Z,5.07
2023-08-12T05:52:08.573Z,4.43
2023-08-12T05:54:53.561Z,4.65
2023-08-12T05:57:38.551Z,4.75
2023-08-12T06:00:23.493Z,4.57
2023-08-12T06:03:08.409Z,4.32
2023-08-12T06:05:53.727Z,4.40
2023-08-12T06:08:39.126Z,4.15
2023-08-12T06:11:24.364Z,4.30
2023-08-12T06:14:09.245Z,3.97
2023-08-12T06:16:55.476Z,3.97
2023-08-12T06:19:43.254Z,4.47
2023-08-12T06:22:28.146Z,4.35
2023-08-12T06:25:13.557Z,4.30
2023-08-12T06:27:59.102Z,3.78
2023-08-12T06:30:48.624Z,4.15
2023-08-12T06:33:33.378Z,4.13
2023-08-12T06:36:18.241Z,3.88
2023-08-12T06:39:04.044Z,3.88
2023-08-12T06:41:48.640Z,3.60
2023-08-12T06:44:33.685Z,3.78
2023-08-12T06:47:18.598Z,3.75
2023-08-12T06:50:03.920Z,3.47
2023-08-12T06:52:48.554Z,3.45
2023-08-12T06:55:33.501Z,3.45
2023-08-12T06:58:18.561Z,3.05
2023-08-12T07:01:03.469Z,3.35
2023-08-12T07:03:48.610Z,3.20
2023-08-12T07:06:33.522Z,3.53
2023-08-12T07:09:18.524Z,3.40
2023-08-12T07:12:04.469Z,3.05
2023-08-12T07:14:49.053Z,3.35
2023-08-12T07:17:33.787Z,3.05
2023-08-12T07:20:18.677Z,3.38
2023-08-12T07:23:03.746Z,3.22
2023-08-12T07:25:48.890Z,3.00
2023-08-12T07:28:33.655Z,2.70
2023-08-12T07:31:18.825Z,2.60
2023-08-12T07:34:03.674Z,3.10
2023-08-12T07:36:48.436Z,3.00
2023-08-12T07:39:33.385Z,3.22
2023-08-12T07:42:18.381Z,3.08
2023-08-12T07:45:03.673Z,2.78
2023-08-12T07:47:50.019Z,3.30
2023-08-12T07:50:35.238Z,3.22
2023-08-12T07:53:20.252Z,3.05
2023-08-12T07:56:05.331Z,3.20
2023-08-12T07:58:50.263Z,2.95
2023-08-12T08:01:36.683Z,2.92
2023-08-12T08:04:23.904Z,3.45
2023-08-12T08:07:09.286Z,3.50
2023-08-12T08:09:54.406Z,3.08
2023-08-12T08:12:39.197Z,3.30
2023-08-12T08:15:24.281Z,3.10
2023-08-12T08:18:09.510Z,3.28
2023-08-12T08:20:54.330Z,3.00
2023-08-12T08:23:41.313Z,3.50
2023-08-12T08:26:27.534Z,3.50
2023-08-12T08:29:12.182Z,3.15
2023-08-12T08:31:57.140Z,3.20
2023-08-12T08:34:42.044Z,3.20
2023-08-12T08:37:27.162Z,3.20
2023-08-12T08:40:12.693Z,3.15
2023-08-12T08:43:04.241Z,3.17
2023-08-12T08:45:53.876Z,3.15
2023-08-12T08:48:39.422Z,3.15
2023-08-12T08:51:25.896Z,3.35
2023-08-12T08:54:12.445Z,3.30
2023-08-12T08:56:58.987Z,3.08
2023-08-12T08:59:58.152Z,3.45
2023-08-12T09:02:46.366Z,3.50
2023-08-12T09:05:32.541Z,3.50
2023-08-12T09:08:17.795Z,3.35
2023-08-12T09:11:03.068Z,3.50
2023-08-12T09:13:48.941Z,3.30
2023-08-12T09:16:34.471Z,2.97
2023-08-12T09:19:19.242Z,3.05
2023-08-12T09:22:05.904Z,3.38
2023-08-12T09:24:51.221Z,3.60
2023-08-12T09:27:40.128Z,3.50
2023-08-12T09:30:25.063Z,3.10
2023-08-12T09:33:11.439Z,2.97
2023-08-12T09:35:57.451Z,2.72
2023-08-12T09:38:43.181Z,3.10
2023-08-12T09:41:30.886Z,3.08
2023-08-12T09:44:16.162Z,2.80
2023-08-12T09:47:01.399Z,3.00
2023-08-12T09:49:46.256Z,2.92
2023-08-12T09:52:31.499Z,2.83
2023-08-12T09:55:18.071Z,2.70
2023-08-12T09:58:07.874Z,2.63
2023-08-12T10:00:53.451Z,3.00
2023-08-12T10:03:38.959Z,2.85
2023-08-12T10:06:24.775Z,2.90
2023-08-12T10:09:10.564Z,3.00
2023-08-12T10:11:56.077Z,2.63
2023-08-12T10:14:41.170Z,2.80
2023-08-12T10:17:41.254Z,2.67
2023-08-12T10:20:30.244Z,2.80
2023-08-12T10:23:17.198Z,2.78
2023-08-12T10:26:02.737Z,2.90
2023-08-12T10:28:51.910Z,2.40
2023-08-12T10:31:40.304Z,2.88
2023-08-12T10:34:25.660Z,2.38
2023-08-12T10:37:11.778Z,2.80
2023-08-12T10:39:56.792Z,2.55
2023-08-12T10:42:44.938Z,2.60
2023-08-12T10:45:43.210Z,2.83
2023-08-12T10:48:28.466Z,2.70
2023-08-12T10:51:14.750Z,2.60
2023-08-12T10:54:14.377Z,2.80
2023-08-12T10:57:02.016Z,2.30
2023-08-12T10:59:47.148Z,2.40
2023-08-12T11:02:33.516Z,2.60
2023-08-12T11:05:22.705Z,2.70
2023-08-12T11:08:07.743Z,2.50
2023-08-12T11:10:56.010Z,2.40
2023-08-12T11:13:59.316Z,2.78
2023-08-12T11:16:44.196Z,2.22
2023-08-12T11:19:29.555Z,2.40
2023-08-12T11:22:14.983Z,2.30
2023-08-12T11:25:00.694Z,2.53
2023-08-12T11:27:47.460Z,2.70
2023-08-12T11:30:33.287Z,2.47
2023-08-12T11:33:19.175Z,2.58
2023-08-12T11:36:03.820Z,2.58
2023-08-12T11:38:49.555Z,2.40
2023-08-12T11:41:35.169Z,2.30
2023-08-12T11:44:23.488Z,2.50
2023-08-12T11:47:08.474Z,2.38
2023-08-12T11:49:54.525Z,2.50
2023-08-12T11:52:40.964Z,2.30
2023-08-12T11:55:26.219Z,1.80
2023-08-12T11:58:14.107Z,2.15
2023-08-12T12:00:59.439Z,2.10
2023-08-12T12:03:44.494Z,2.03
2023-08-12T12:06:36.217Z,2.45
2023-08-12T12:09:21.646Z,2.00
2023-08-12T12:12:07.694Z,1.90
2023-08-12T12:14:54.951Z,1.83
2023-08-12T12:17:41.129Z,2.00
2023-08-12T12:20:27.562Z,1.90
2023-08-12T12:23:12.335Z,2.00
2023-08-12T12:25:59.442Z,2.05
2023-08-12T12:28:44.562Z,1.90
2023-08-12T12:31:29.745Z,1.70
2023-08-12T12:34:14.856Z,2.08
2023-08-12T12:36:59.624Z,2.05
2023-08-12T12:39:44.560Z,2.00
2023-08-12T12:42:29.938Z,1.95
2023-08-12T12:45:14.848Z,1.90
2023-08-12T12:47:59.888Z,2.13
2023-08-12T12:50:44.699Z,1.77
2023-08-12T12:53:29.375Z,1.92
2023-08-12T12:56:14.447Z,2.08
2023-08-12T12:58:59.406Z,1.90
2023-08-12T13:01:44.331Z,2.10
2023-08-12T13:04:29.334Z,2.00
2023-08-12T13:07:14.282Z,2.10
2023-08-12T13:09:58.917Z,2.00
2023-08-12T13:12:44.319Z,2.10
2023-08-12T13:15:28.917Z,2.00
2023-08-12T13:18:14.171Z,1.73
2023-08-12T13:20:58.948Z,2.10
2023-08-12T13:23:44.018Z,2.08
2023-08-12T13:26:29.173Z,2.10
2023-08-12T13:29:14.045Z,1.70
2023-08-12T13:31:59.017Z,2.40
2023-08-12T13:34:46.743Z,2.42
2023-08-12T13:37:33.747Z,2.30
2023-08-12T13:40:18.714Z,2.13
2023-08-12T13:43:03.799Z,2.10
2023-08-12T13:45:48.800Z,2.00
2023-08-12T13:48:33.801Z,1.83
2023-08-12T13:51:18.905Z,2.05
2023-08-12T13:54:04.096Z,1.98
2023-08-12T13:56:48.802Z,2.17
2023-08-12T13:59:33.833Z,2.20
2023-08-12T14:02:18.822Z,2.20
2023-08-12T14:05:05.278Z,2.22
2023-08-12T14:07:51.117Z,2.00
2023-08-12T14:10:35.963Z,1.83
2023-08-12T14:13:20.738Z,2.00
2023-08-12T14:16:05.359Z,2.28
2023-08-12T14:18:50.969Z,2.33
2023-08-12T14:21:35.728Z,1.80
2023-08-12T14:24:20.781Z,2.13
2023-08-12T14:27:05.840Z,2.20
2023-08-12T14:29:50.847Z,2.30
2023-08-12T14:32:35.663Z,2.10
2023-08-12T14:35:20.868Z,2.00
2023-08-12T14:38:06.337Z,1.90
2023-08-12T14:40:51.298Z,2.22
2023-08-12T14:43:37.508Z,2.03
2023-08-12T14:46:22.516Z,2.00
2023-08-12T14:49:07.843Z,2.20
2023-08-12T14:51:55.770Z,1.92
2023-08-12T14:54:40.651Z,2.05
2023-08-12T14:57:25.797Z,2.13
2023-08-12T15:00:11.203Z,2.13
2023-08-12T15:02:56.147Z,2.30
2023-08-12T15:05:41.610Z,2.38
2023-08-12T15:08:26.647Z,2.00
2023-08-12T15:11:11.614Z,2.22
2023-08-12T15:13:56.626Z,1.98
2023-08-12T15:16:41.655Z,2.58
2023-08-12T15:19:26.733Z,2.50
2023-08-12T15:22:11.769Z,2.20
2023-08-12T15:24:56.691Z,2.42
2023-08-12T15:27:41.746Z,2.30
2023-08-12T15:30:26.822Z,2.50
2023-08-12T15:33:12.107Z,2.45
2023-08-12T15:35:57.119Z,2.97
2023-08-12T15:38:42.884Z,2.50
2023-08-12T15:41:27.588Z,2.35
2023-08-12T15:44:13.589Z,2.60
2023-08-12T15:46:58.457Z,2.53
2023-08-12T15:49:43.392Z,2.50
2023-08-12T15:52:30.311Z,2.72
2023-08-12T15:55:15.043Z,3.00
2023-08-12T15:58:00.058Z,2.40
2023-08-12T16:00:48.998Z,2.53
2023-08-12T16:03:33.724Z,2.85
2023-08-12T16:06:19.089Z,2.75
2023-08-12T16:09:16.758Z,2.67
2023-08-12T16:12:03.418Z,2.45
2023-08-12T16:14:48.416Z,2.63
2023-08-12T16:17:33.196Z,3.30
2023-08-12T16:20:17.946Z,2.65
2023-08-12T16:23:02.932Z,2.45
2023-08-12T16:25:47.793Z,2.60
2023-08-12T16:28:32.866Z,2.10
2023-08-12T16:31:17.689Z,2.20
2023-08-12T16:34:02.860Z,2.65
2023-08-12T16:36:48.893Z,3.10
2023-08-12T16:39:38.065Z,3.95
2023-08-12T16:42:23.279Z,3.60
2023-08-12T16:45:08.704Z,3.83
2023-08-12T16:47:53.905Z,3.30
2023-08-12T16:50:38.757Z,2.97
2023-08-12T16:53:24.038Z,3.05
2023-08-12T16:56:08.752Z,2.70
2023-08-12T16:58:53.565Z,3.10
2023-08-12T17:01:38.360Z,3.25
2023-08-12T17:04:23.233Z,4.25
2023-08-12T17:07:08.004Z,3.20
2023-08-12T17:09:52.869Z,2.85
2023-08-12T17:12:37.923Z,3.33
2023-08-12T17:15:22.964Z,3.40
2023-08-12T17:18:10.734Z,3.70
2023-08-12T17:20:55.488Z,3.42
2023-08-12T17:23:40.785Z,3.97
2023-08-12T17:26:25.836Z,4.25
2023-08-12T17:29:10.581Z,3.58
2023-08-12T17:31:55.931Z,4.30
2023-08-12T17:34:40.794Z,3.33
2023-08-12T17:37:25.550Z,3.42
2023-08-12T17:40:11.769Z,3.95
2023-08-12T17:42:56.660Z,3.53
2023-08-12T17:45:41.665Z,3.95
2023-08-12T17:48:26.184Z,4.40
2023-08-12T17:51:15.186Z,3.92
2023-08-12T17:54:00.256Z,4.25
2023-08-12T17:56:45.132Z,4.00
2023-08-12T17:59:29.952Z,4.70
2023-08-12T18:02:15.153Z,5.20
2023-08-12T18:05:00.085Z,4.25
2023-08-12T18:07:46.147Z,4.60
2023-08-12T18:10:31.249Z,4.80
2023-08-12T18:13:15.970Z,5.60
2023-08-12T18:16:01.062Z,6.50
2023-08-12T18:18:45.908Z,6.18
2023-08-12T18:21:30.898Z,6.18
2023-08-12T18:24:15.846Z,6.10
2023-08-12T18:27:01.390Z,7.00
2023-08-12T18:29:46.970Z,6.53
2023-08-12T18:32:31.629Z,6.45
2023-08-12T18:35:16.290Z,6.57
2023-08-12T18:38:01.920Z,7.07
2023-08-12T18:40:46.959Z,6.90
2023-08-12T18:43:31.733Z,6.95
2023-08-12T18:46:16.875Z,6.80
2023-08-12T18:49:02.476Z,6.82
2023-08-12T18:51:47.291Z,6.50
2023-08-12T18:54:32.662Z,5.78
2023-08-12T18:57:17.438Z,5.97
2023-08-12T19:00:02.854Z,6.20
2023-08-12T19:02:48.237Z,6.07
2023-08-12T19:05:33.063Z,5.68
2023-08-12T19:08:18.151Z,5.55
2023-08-12T19:11:03.699Z,5.43
2023-08-12T19:13:48.865Z,6.05
2023-08-12T19:16:34.225Z,5.50
2023-08-12T19:19:19.073Z,5.15
2023-08-12T19:22:03.948Z,6.35
2023-08-12T19:24:49.018Z,6.50
2023-08-12T19:27:34.000Z,6.57
2023-08-12T19:30:20.644Z,6.93
2023-08-12T19:33:05.583Z,7.07
2023-08-12T19:35:50.441Z,7.25
2023-08-12T19:38:35.220Z,7.60
2023-08-12T19:41:20.144Z,7.38
2023-08-12T19:44:05.542Z,7.57
2023-08-12T19:46:50.155Z,7.10
2023-08-12T19:49:35.415Z,7.07
2023-08-12T19:52:20.205Z,7.10
2023-08-12T19:55:06.996Z,7.43
2023-08-12T19:57:51.727Z,7.38
2023-08-12T20:00:36.823Z,9.20
2023-08-12T20:03:22.169Z,9.75
2023-08-12T20:06:10.236Z,8.73
2023-08-12T20:08:55.436Z,8.90
2023-08-12T20:11:40.249Z,9.52
2023-08-12T20:14:25.808Z,10.23
2023-08-12T20:17:10.512Z,9.35
2023-08-12T20:19:55.848Z,10.30
2023-08-12T20:22:54.470Z,9.48
2023-08-12T20:25:45.362Z,11.35
2023-08-12T20:28:30.317Z,10.55
2023-08-12T20:31:15.321Z,10.82
2023-08-12T20:34:00.400Z,11.32
2023-08-12T20:36:45.669Z,10.05
2023-08-12T20:39:30.191Z,10.68
2023-08-12T20:42:15.187Z,10.68
2023-08-12T20:45:00.221Z,10.15
2023-08-12T20:47:45.169Z,10.88
2023-08-12T20:50:30.048Z,11.40
2023-08-12T20:53:15.818Z,11.75
2023-08-12T20:56:00.616Z,11.93
2023-08-12T20:58:46.495Z,12.18
2023-08-12T21:01:31.157Z,12.23
2023-08-12T21:04:16.286Z,11.40
2023-08-12T21:07:01.408Z,10.63
2023-08-12T21:09:46.375Z,12.38
2023-08-12T21:12:31.252Z,12.70
2023-08-12T21:15:16.443Z,13.30
2023-08-12T21:18:03.465Z,12.95
2023-08-12T21:20:48.282Z,12.60
2023-08-12T21:23:33.164Z,13.10
2023-08-12T21:26:18.165Z,12.40
2023-08-12T21:29:03.623Z,11.57
2023-08-12T21:31:48.688Z,12.82
2023-08-12T21:34:33.627Z,12.85
2023-08-12T21:37:18.335Z,12.98
2023-08-12T21:40:03.585Z,13.50
2023-08-12T21:42:49.055Z,14.18
2023-08-12T21:45:33.747Z,13.82
2023-08-12T21:48:18.910Z,13.07
2023-08-12T21:51:03.723Z,12.73
2023-08-12T21:53:52.321Z,13.00
2023-08-12T21:56:37.096Z,12.32
2023-08-12T21:59:22.091Z,12.55
2023-08-12T22:02:07.155Z,12.30
2023-08-12T22:04:52.204Z,12.35
2023-08-12T22:07:37.381Z,13.50
2023-08-12T22:10:22.086Z,13.85
2023-08-12T22:13:07.025Z,13.88
2023-08-12T22:15:52.017Z,12.13
2023-08-12T22:18:37.180Z,11.90
2023-08-12T22:21:22.208Z,12.70
2023-08-12T22:24:07.267Z,12.60
2023-08-12T22:26:53.225Z,11.75
2023-08-12T22:29:38.596Z,10.80
2023-08-12T22:32:23.493Z,11.25
2023-08-12T22:35:09.606Z,12.43
2023-08-12T22:37:54.336Z,11.90
2023-08-12T22:40:39.402Z,11.80
2023-08-12T22:43:24.153Z,12.18
2023-08-12T22:46:09.133Z,10.90
2023-08-12T22:48:54.562Z,11.02
2023-08-12T22:51:39.406Z,11.70
2023-08-12T22:54:24.419Z,12.05
2023-08-12T22:57:09.361Z,11.00
2023-08-12T22:59:54.633Z,12.10
2023-08-12T23:02:39.565Z,12.18
2023-08-12T23:05:24.687Z,11.18
2023-08-12T23:08:09.924Z,11.57
2023-08-12T23:10:54.906Z,11.27
2023-08-12T23:13:39.760Z,11.30
2023-08-12T23:16:25.666Z,11.45
2023-08-12T23:19:12.218Z,10.48
2023-08-12T23:21:58.108Z,9.95
2023-08-12T23:24:43.215Z,11.45
2023-08-12T23:27:28.060Z,10.80
2023-08-12T23:30:14.625Z,11.45
2023-08-12T23:32:59.611Z,10.45
2023-08-12T23:35:44.388Z,10.75
2023-08-12T23:38:29.496Z,10.85
2023-08-12T23:41:14.512Z,9.85
2023-08-12T23:43:59.694Z,10.20
2023-08-12T23:46:47.577Z,11.50
2023-08-12T23:49:33.203Z,12.13
2023-08-12T23:52:18.661Z,11.70
2023-08-12T23:55:04.060Z,11.20
2023-08-12T23:57:48.598Z,12.23
